sensor_id;sensor_type;location;lat;lon;timestamp;pressure;altitude;pressure_sealevel;temperature;humidity
6387;BME280;3226;42.162;24.756;2023-03-19T00:00:30;100285.25;;;2.96;65.66
6387;BME280;3226;42.162;24.756;2023-03-19T00:02:58;100301.19;;;2.85;65.86
6387;BME280;3226;42.162;24.756;2023-03-19T00:05:26;100303.53;;;2.69;66.54
6387;BME280;3226;42.162;24.756;2023-03-19T00:07:54;100305.09;;;2.73;66.24
6387;BME280;3226;42.162;24.756;2023-03-19T00:10:22;100299.94;;;2.73;66.85
6387;BME280;3226;42.162;24.756;2023-03-19T00:12:50;100301.13;;;2.65;67.51
6387;BME280;3226;42.162;24.756;2023-03-19T00:15:20;100294.72;;;2.53;67.58
6387;BME280;3226;42.162;24.756;2023-03-19T00:17:48;100257.69;;;2.28;67.62
6387;BME280;3226;42.162;24.756;2023-03-19T00:20:16;100290.38;;;2.53;68.07
6387;BME280;3226;42.162;24.756;2023-03-19T00:22:45;100285.72;;;2.39;67.88
6387;BME280;3226;42.162;24.756;2023-03-19T00:25:13;100273.97;;;2.08;68.38
6387;BME280;3226;42.162;24.756;2023-03-19T00:27:41;100272.22;;;2.09;68.65
6387;BME280;3226;42.162;24.756;2023-03-19T00:30:11;100236.06;;;1.85;68.84
6387;BME280;3226;42.162;24.756;2023-03-19T00:32:40;100273.91;;;2.10;68.74
6387;BME280;3226;42.162;24.756;2023-03-19T00:35:09;100262.44;;;1.93;69.40
6387;BME280;3226;42.162;24.756;2023-03-19T00:37:37;100262.56;;;1.90;69.57
6387;BME280;3226;42.162;24.756;2023-03-19T00:40:06;100260.75;;;1.92;69.44
6387;BME280;3226;42.162;24.756;2023-03-19T00:42:34;100256.44;;;1.69;69.74
6387;BME280;3226;42.162;24.756;2023-03-19T00:45:03;100254.38;;;1.79;69.50
6387;BME280;3226;42.162;24.756;2023-03-19T00:47:32;100260.81;;;1.67;70.12
6387;BME280;3226;42.162;24.756;2023-03-19T00:50:01;100251.34;;;1.67;69.76
6387;BME280;3226;42.162;24.756;2023-03-19T00:52:30;100249.44;;;1.72;70.21
6387;BME280;3226;42.162;24.756;2023-03-19T00:54:58;100249.44;;;1.72;69.58
6387;BME280;3226;42.162;24.756;2023-03-19T00:57:26;100247.91;;;1.67;69.96
6387;BME280;3226;42.162;24.756;2023-03-19T00:59:54;100206.19;;;1.30;69.96
6387;BME280;3226;42.162;24.756;2023-03-19T01:02:22;100244.72;;;1.84;69.32
6387;BME280;3226;42.162;24.756;2023-03-19T01:04:50;100241.72;;;1.95;68.31
6387;BME280;3226;42.162;24.756;2023-03-19T01:07:19;100235.31;;;2.05;67.54
6387;BME280;3226;42.162;24.756;2023-03-19T01:09:47;100242.44;;;2.22;66.76
6387;BME280;3226;42.162;24.756;2023-03-19T01:12:15;100239.59;;;2.28;66.29
6387;BME280;3226;42.162;24.756;2023-03-19T01:14:45;100238.16;;;2.21;66.27
6387;BME280;3226;42.162;24.756;2023-03-19T01:17:13;100243.44;;;2.18;66.45
6387;BME280;3226;42.162;24.756;2023-03-19T01:19:40;100241.72;;;2.19;66.32
6387;BME280;3226;42.162;24.756;2023-03-19T01:22:09;100238.38;;;2.39;65.53
6387;BME280;3226;42.162;24.756;2023-03-19T01:24:38;100234.22;;;2.35;65.67
6387;BME280;3226;42.162;24.756;2023-03-19T01:27:06;100236.34;;;2.45;65.63
6387;BME280;3226;42.162;24.756;2023-03-19T01:29:34;100239.28;;;2.38;65.15
6387;BME280;3226;42.162;24.756;2023-03-19T01:32:03;100203.91;;;2.16;65.83
6387;BME280;3226;42.162;24.756;2023-03-19T01:34:31;100240.63;;;2.46;65.50
6387;BME280;3226;42.162;24.756;2023-03-19T01:36:59;100243.28;;;2.45;65.38
6387;BME280;3226;42.162;24.756;2023-03-19T01:39:27;100238.84;;;2.49;65.58
6387;BME280;3226;42.162;24.756;2023-03-19T01:42:00;100241.66;;;2.42;65.61
6387;BME280;3226;42.162;24.756;2023-03-19T01:44:30;100233.06;;;2.20;66.39
6387;BME280;3226;42.162;24.756;2023-03-19T01:47:00;100233.53;;;2.29;66.58
6387;BME280;3226;42.162;24.756;2023-03-19T01:49:29;100240.69;;;2.23;66.46
6387;BME280;3226;42.162;24.756;2023-03-19T01:51:59;100236.72;;;2.14;66.72
6387;BME280;3226;42.162;24.756;2023-03-19T01:54:29;100249.16;;;2.26;66.36
6387;BME280;3226;42.162;24.756;2023-03-19T01:57:03;100247.72;;;2.19;66.76
6387;BME280;3226;42.162;24.756;2023-03-19T01:59:35;100237.34;;;2.21;66.51
6387;BME280;3226;42.162;24.756;2023-03-19T02:02:08;100241.75;;;2.17;66.48
6387;BME280;3226;42.162;24.756;2023-03-19T02:04:39;100255.19;;;2.27;66.36
6387;BME280;3226;42.162;24.756;2023-03-19T02:07:09;100246.13;;;2.39;65.26
6387;BME280;3226;42.162;24.756;2023-03-19T02:09:38;100242.75;;;2.37;66.05
6387;BME280;3226;42.162;24.756;2023-03-19T02:12:09;100256.81;;;2.52;65.57
6387;BME280;3226;42.162;24.756;2023-03-19T02:14:38;100251.81;;;2.47;65.91
6387;BME280;3226;42.162;24.756;2023-03-19T02:17:06;100247.66;;;2.65;65.26
6387;BME280;3226;42.162;24.756;2023-03-19T02:19:39;100256.69;;;2.77;63.96
6387;BME280;3226;42.162;24.756;2023-03-19T02:22:13;100265.16;;;2.58;64.84
6387;BME280;3226;42.162;24.756;2023-03-19T02:24:49;100256.22;;;2.67;65.25
6387;BME280;3226;42.162;24.756;2023-03-19T02:27:19;100264.19;;;2.83;64.29
6387;BME280;3226;42.162;24.756;2023-03-19T02:29:47;100255.34;;;2.89;63.42
6387;BME280;3226;42.162;24.756;2023-03-19T02:32:15;100275.66;;;2.98;63.18
6387;BME280;3226;42.162;24.756;2023-03-19T02:34:44;100253.97;;;2.80;64.11
6387;BME280;3226;42.162;24.756;2023-03-19T02:37:15;100277.53;;;2.95;63.82
6387;BME280;3226;42.162;24.756;2023-03-19T02:39:57;100276.41;;;3.02;63.29
6387;BME280;3226;42.162;24.756;2023-03-19T02:42:28;100261.66;;;2.82;63.17
6387;BME280;3226;42.162;24.756;2023-03-19T02:44:56;100289.34;;;3.02;62.50
6387;BME280;3226;42.162;24.756;2023-03-19T02:47:25;100284.75;;;2.86;62.54
6387;BME280;3226;42.162;24.756;2023-03-19T02:49:53;100290.47;;;2.95;62.76
6387;BME280;3226;42.162;24.756;2023-03-19T02:52:22;100257.28;;;2.84;63.07
6387;BME280;3226;42.162;24.756;2023-03-19T02:54:50;100279.06;;;2.99;63.52
6387;BME280;3226;42.162;24.756;2023-03-19T02:57:18;100274.38;;;3.09;62.74
6387;BME280;3226;42.162;24.756;2023-03-19T02:59:47;100280.28;;;3.12;63.10
6387;BME280;3226;42.162;24.756;2023-03-19T03:02:15;100273.72;;;3.03;62.43
6387;BME280;3226;42.162;24.756;2023-03-19T03:04:43;100278.78;;;3.07;62.48
6387;BME280;3226;42.162;24.756;2023-03-19T03:07:12;100288.09;;;2.90;63.15
6387;BME280;3226;42.162;24.756;2023-03-19T03:09:40;100280.97;;;2.95;62.76
6387;BME280;3226;42.162;24.756;2023-03-19T03:12:08;100277.47;;;2.96;63.33
6387;BME280;3226;42.162;24.756;2023-03-19T03:14:36;100280.25;;;2.69;63.30
6387;BME280;3226;42.162;24.756;2023-03-19T03:17:06;100282.56;;;2.55;64.02
6387;BME280;3226;42.162;24.756;2023-03-19T03:19:34;100266.84;;;2.59;64.04
6387;BME280;3226;42.162;24.756;2023-03-19T03:22:02;100270.09;;;2.65;64.37
6387;BME280;3226;42.162;24.756;2023-03-19T03:24:31;100293.19;;;2.69;64.40
6387;BME280;3226;42.162;24.756;2023-03-19T03:26:59;100291.34;;;2.73;63.97
6387;BME280;3226;42.162;24.756;2023-03-19T03:29:27;100271.34;;;2.77;63.97
6387;BME280;3226;42.162;24.756;2023-03-19T03:31:55;100296.88;;;2.86;63.57
6387;BME280;3226;42.162;24.756;2023-03-19T03:34:24;100294.22;;;2.65;64.66
6387;BME280;3226;42.162;24.756;2023-03-19T03:36:52;100294.47;;;2.81;63.80
6387;BME280;3226;42.162;24.756;2023-03-19T03:39:20;100299.03;;;2.74;64.30
6387;BME280;3226;42.162;24.756;2023-03-19T03:41:48;100301.56;;;2.54;64.50
6387;BME280;3226;42.162;24.756;2023-03-19T03:44:17;100300.94;;;2.69;64.78
6387;BME280;3226;42.162;24.756;2023-03-19T03:46:45;100298.53;;;2.65;64.44
6387;BME280;3226;42.162;24.756;2023-03-19T03:49:14;100307.03;;;2.68;64.53
6387;BME280;3226;42.162;24.756;2023-03-19T03:51:43;100301.69;;;2.73;64.70
6387;BME280;3226;42.162;24.756;2023-03-19T03:54:11;100302.81;;;2.88;64.21
6387;BME280;3226;42.162;24.756;2023-03-19T03:56:39;100306.38;;;2.85;64.27
6387;BME280;3226;42.162;24.756;2023-03-19T03:59:07;100303.19;;;3.01;63.66
6387;BME280;3226;42.162;24.756;2023-03-19T04:01:35;100301.03;;;2.90;63.18
6387;BME280;3226;42.162;24.756;2023-03-19T04:04:03;100302.50;;;2.73;63.57
6387;BME280;3226;42.162;24.756;2023-03-19T04:06:31;100305.53;;;2.85;63.35
6387;BME280;3226;42.162;24.756;2023-03-19T04:09:01;100306.19;;;2.90;63.43
6387;BME280;3226;42.162;24.756;2023-03-19T04:11:30;100300.47;;;3.04;63.17
6387;BME280;3226;42.162;24.756;2023-03-19T04:13:58;100301.28;;;3.04;63.13
6387;BME280;3226;42.162;24.756;2023-03-19T04:16:26;100307.88;;;2.91;63.49
6387;BME280;3226;42.162;24.756;2023-03-19T04:18:55;100308.03;;;2.86;63.73
6387;BME280;3226;42.162;24.756;2023-03-19T04:21:23;100310.63;;;2.86;63.76
6387;BME280;3226;42.162;24.756;2023-03-19T04:23:51;100308.22;;;2.59;65.42
6387;BME280;3226;42.162;24.756;2023-03-19T04:26:21;100281.22;;;2.44;65.45
6387;BME280;3226;42.162;24.756;2023-03-19T04:28:49;100305.84;;;2.55;65.71
6387;BME280;3226;42.162;24.756;2023-03-19T04:31:17;100313.09;;;2.45;65.14
6387;BME280;3226;42.162;24.756;2023-03-19T04:33:45;100314.25;;;2.38;65.12
6387;BME280;3226;42.162;24.756;2023-03-19T04:36:13;100318.44;;;2.63;64.88
6387;BME280;3226;42.162;24.756;2023-03-19T04:38:41;100312.44;;;2.62;64.25
6387;BME280;3226;42.162;24.756;2023-03-19T04:41:09;100307.41;;;2.59;64.35
6387;BME280;3226;42.162;24.756;2023-03-19T04:43:38;100314.50;;;2.76;63.58
6387;BME280;3226;42.162;24.756;2023-03-19T04:46:06;100312.81;;;2.53;63.51
6387;BME280;3226;42.162;24.756;2023-03-19T04:48:35;100309.50;;;2.49;64.09
6387;BME280;3226;42.162;24.756;2023-03-19T04:51:04;100310.28;;;2.51;63.69
6387;BME280;3226;42.162;24.756;2023-03-19T04:53:34;100306.28;;;2.65;63.45
6387;BME280;3226;42.162;24.756;2023-03-19T04:56:04;100323.44;;;2.67;63.04
6387;BME280;3226;42.162;24.756;2023-03-19T04:58:32;100318.13;;;2.72;63.12
6387;BME280;3226;42.162;24.756;2023-03-19T05:01:02;100314.13;;;2.63;63.26
6387;BME280;3226;42.162;24.756;2023-03-19T05:03:30;100320.09;;;2.87;62.10
6387;BME280;3226;42.162;24.756;2023-03-19T05:05:58;100303.53;;;2.92;62.40
6387;BME280;3226;42.162;24.756;2023-03-19T05:08:26;100325.66;;;2.99;62.84
6387;BME280;3226;42.162;24.756;2023-03-19T05:10:54;100325.19;;;3.11;62.43
6387;BME280;3226;42.162;24.756;2023-03-19T05:13:21;100341.16;;;2.78;61.96
6387;BME280;3226;42.162;24.756;2023-03-19T05:15:52;100341.06;;;2.80;62.38
6387;BME280;3226;42.162;24.756;2023-03-19T05:18:22;100331.34;;;2.64;62.40
6387;BME280;3226;42.162;24.756;2023-03-19T05:20:50;100347.22;;;2.77;63.44
6387;BME280;3226;42.162;24.756;2023-03-19T05:23:19;100343.25;;;2.91;62.63
6387;BME280;3226;42.162;24.756;2023-03-19T05:25:46;100339.16;;;3.07;62.31
6387;BME280;3226;42.162;24.756;2023-03-19T05:28:15;100337.25;;;3.11;62.25
6387;BME280;3226;42.162;24.756;2023-03-19T05:30:43;100336.81;;;3.01;62.07
6387;BME280;3226;42.162;24.756;2023-03-19T05:33:11;100341.06;;;2.80;62.45
6387;BME280;3226;42.162;24.756;2023-03-19T05:35:40;100340.84;;;2.86;62.48
6387;BME280;3226;42.162;24.756;2023-03-19T05:38:08;100347.75;;;2.85;62.19
6387;BME280;3226;42.162;24.756;2023-03-19T05:40:37;100346.38;;;2.77;62.78
6387;BME280;3226;42.162;24.756;2023-03-19T05:43:07;100354.09;;;2.78;62.36
6387;BME280;3226;42.162;24.756;2023-03-19T05:45:36;100348.66;;;2.84;62.02
6387;BME280;3226;42.162;24.756;2023-03-19T05:48:05;100350.41;;;3.06;61.63
6387;BME280;3226;42.162;24.756;2023-03-19T05:50:33;100358.09;;;3.08;61.23
6387;BME280;3226;42.162;24.756;2023-03-19T05:53:02;100362.50;;;3.06;61.15
6387;BME280;3226;42.162;24.756;2023-03-19T05:55:30;100361.34;;;3.13;62.02
6387;BME280;3226;42.162;24.756;2023-03-19T05:57:58;100350.09;;;3.97;59.53
6387;BME280;3226;42.162;24.756;2023-03-19T06:00:27;100350.41;;;4.10;58.77
6387;BME280;3226;42.162;24.756;2023-03-19T06:02:55;100358.84;;;4.53;57.51
6387;BME280;3226;42.162;24.756;2023-03-19T06:05:23;100365.81;;;4.89;55.92
6387;BME280;3226;42.162;24.756;2023-03-19T06:07:51;100370.47;;;5.55;54.99
6387;BME280;3226;42.162;24.756;2023-03-19T06:10:20;100269.78;;;5.07;52.56
6387;BME280;3226;42.162;24.756;2023-03-19T06:12:48;100382.00;;;6.02;51.55
6387;BME280;3226;42.162;24.756;2023-03-19T06:15:17;100390.38;;;5.89;50.51
6387;BME280;3226;42.162;24.756;2023-03-19T06:17:46;100378.75;;;5.97;50.31
6387;BME280;3226;42.162;24.756;2023-03-19T06:20:14;100375.72;;;6.72;49.62
6387;BME280;3226;42.162;24.756;2023-03-19T06:22:43;100380.94;;;7.18;48.69
6387;BME280;3226;42.162;24.756;2023-03-19T06:25:11;100383.31;;;7.23;49.41
6387;BME280;3226;42.162;24.756;2023-03-19T06:27:40;100388.34;;;7.26;47.82
6387;BME280;3226;42.162;24.756;2023-03-19T06:30:09;100380.25;;;7.61;48.02
6387;BME280;3226;42.162;24.756;2023-03-19T06:32:37;100372.28;;;7.93;46.47
6387;BME280;3226;42.162;24.756;2023-03-19T06:35:06;100373.03;;;7.95;47.05
6387;BME280;3226;42.162;24.756;2023-03-19T06:37:34;100370.53;;;8.23;46.47
6387;BME280;3226;42.162;24.756;2023-03-19T06:40:04;100361.59;;;8.13;45.29
6387;BME280;3226;42.162;24.756;2023-03-19T06:42:32;100368.47;;;8.57;45.77
6387;BME280;3226;42.162;24.756;2023-03-19T06:45:02;100372.19;;;8.95;45.51
6387;BME280;3226;42.162;24.756;2023-03-19T06:47:30;100370.53;;;8.79;44.86
6387;BME280;3226;42.162;24.756;2023-03-19T06:49:58;100367.28;;;8.19;44.77
6387;BME280;3226;42.162;24.756;2023-03-19T06:52:26;100361.31;;;8.17;46.15
6387;BME280;3226;42.162;24.756;2023-03-19T06:54:54;100360.81;;;8.39;45.88
6387;BME280;3226;42.162;24.756;2023-03-19T06:57:22;100360.91;;;8.38;46.28
6387;BME280;3226;42.162;24.756;2023-03-19T06:59:50;100361.28;;;8.61;45.62
6387;BME280;3226;42.162;24.756;2023-03-19T07:02:20;100369.56;;;9.22;44.03
6387;BME280;3226;42.162;24.756;2023-03-19T07:04:49;100355.19;;;9.02;44.62
6387;BME280;3226;42.162;24.756;2023-03-19T07:07:18;100359.91;;;9.50;44.46
6387;BME280;3226;42.162;24.756;2023-03-19T07:09:46;100343.47;;;9.48;44.50
6387;BME280;3226;42.162;24.756;2023-03-19T07:12:14;100361.06;;;9.19;44.30
6387;BME280;3226;42.162;24.756;2023-03-19T07:14:42;100362.13;;;9.16;45.06
6387;BME280;3226;42.162;24.756;2023-03-19T07:17:10;100332.91;;;8.96;45.34
6387;BME280;3226;42.162;24.756;2023-03-19T07:19:39;100360.44;;;9.15;46.24
6387;BME280;3226;42.162;24.756;2023-03-19T07:22:07;100354.63;;;9.24;45.37
6387;BME280;3226;42.162;24.756;2023-03-19T07:24:35;100350.09;;;9.14;44.63
6387;BME280;3226;42.162;24.756;2023-03-19T07:27:03;100347.63;;;8.70;45.91
6387;BME280;3226;42.162;24.756;2023-03-19T07:29:32;100339.28;;;9.59;44.69
6387;BME280;3226;42.162;24.756;2023-03-19T07:31:59;100237.81;;;9.64;43.15
6387;BME280;3226;42.162;24.756;2023-03-19T07:34:28;100347.81;;;10.38;44.97
6387;BME280;3226;42.162;24.756;2023-03-19T07:36:57;100342.56;;;10.51;43.34
6387;BME280;3226;42.162;24.756;2023-03-19T07:39:25;100343.97;;;10.68;42.67
6387;BME280;3226;42.162;24.756;2023-03-19T07:41:53;100335.75;;;11.57;40.81
6387;BME280;3226;42.162;24.756;2023-03-19T07:44:21;100342.34;;;11.27;40.97
6387;BME280;3226;42.162;24.756;2023-03-19T07:46:49;100338.81;;;11.04;41.16
6387;BME280;3226;42.162;24.756;2023-03-19T07:49:17;100336.72;;;12.59;39.13
6387;BME280;3226;42.162;24.756;2023-03-19T07:51:45;100336.13;;;12.88;37.24
6387;BME280;3226;42.162;24.756;2023-03-19T07:54:14;100340.44;;;13.43;36.04
6387;BME280;3226;42.162;24.756;2023-03-19T07:56:42;100335.25;;;12.66;37.48
6387;BME280;3226;42.162;24.756;2023-03-19T07:59:10;100332.69;;;12.09;38.51
6387;BME280;3226;42.162;24.756;2023-03-19T08:01:39;100334.38;;;13.31;36.74
6387;BME280;3226;42.162;24.756;2023-03-19T08:04:06;100343.00;;;13.54;35.02
6387;BME280;3226;42.162;24.756;2023-03-19T08:06:34;100340.09;;;13.36;34.90
6387;BME280;3226;42.162;24.756;2023-03-19T08:09:04;100337.81;;;13.43;35.41
6387;BME280;3226;42.162;24.756;2023-03-19T08:11:34;100338.53;;;12.91;37.67
6387;BME280;3226;42.162;24.756;2023-03-19T08:14:02;100332.75;;;12.97;37.01
6387;BME280;3226;42.162;24.756;2023-03-19T08:16:30;100336.91;;;13.00;37.44
6387;BME280;3226;42.162;24.756;2023-03-19T08:18:58;100328.94;;;13.23;36.39
6387;BME280;3226;42.162;24.756;2023-03-19T08:21:26;100317.72;;;12.88;36.40
6387;BME280;3226;42.162;24.756;2023-03-19T08:23:55;100324.50;;;12.69;36.38
6387;BME280;3226;42.162;24.756;2023-03-19T08:26:23;100313.69;;;12.84;36.45
6387;BME280;3226;42.162;24.756;2023-03-19T08:28:53;100313.91;;;12.92;35.62
6387;BME280;3226;42.162;24.756;2023-03-19T08:31:21;100312.56;;;13.19;34.32
6387;BME280;3226;42.162;24.756;2023-03-19T08:33:49;100298.78;;;13.06;35.41
6387;BME280;3226;42.162;24.756;2023-03-19T08:36:17;100294.94;;;13.31;35.92
6387;BME280;3226;42.162;24.756;2023-03-19T08:38:45;100305.25;;;13.65;34.60
6387;BME280;3226;42.162;24.756;2023-03-19T08:41:13;100306.44;;;13.51;34.35
6387;BME280;3226;42.162;24.756;2023-03-19T08:43:41;100308.66;;;12.92;35.25
6387;BME280;3226;42.162;24.756;2023-03-19T08:46:11;100310.06;;;12.96;34.87
6387;BME280;3226;42.162;24.756;2023-03-19T08:48:39;100266.34;;;12.95;34.80
6387;BME280;3226;42.162;24.756;2023-03-19T08:51:07;100295.13;;;13.61;33.52
6387;BME280;3226;42.162;24.756;2023-03-19T08:53:36;100296.19;;;14.20;34.43
6387;BME280;3226;42.162;24.756;2023-03-19T08:56:06;100300.75;;;14.88;32.47
6387;BME280;3226;42.162;24.756;2023-03-19T08:58:34;100299.34;;;14.84;32.11
6387;BME280;3226;42.162;24.756;2023-03-19T09:01:04;100299.44;;;14.43;32.95
6387;BME280;3226;42.162;24.756;2023-03-19T09:03:34;100297.34;;;14.47;32.61
6387;BME280;3226;42.162;24.756;2023-03-19T09:06:03;100294.91;;;15.05;31.43
6387;BME280;3226;42.162;24.756;2023-03-19T09:08:32;100274.28;;;15.38;31.14
6387;BME280;3226;42.162;24.756;2023-03-19T09:11:01;100292.16;;;14.86;31.73
6387;BME280;3226;42.162;24.756;2023-03-19T09:13:29;100290.75;;;14.92;32.86
6387;BME280;3226;42.162;24.756;2023-03-19T09:15:57;100271.91;;;15.44;32.07
6387;BME280;3226;42.162;24.756;2023-03-19T09:18:25;100272.00;;;16.28;29.96
6387;BME280;3226;42.162;24.756;2023-03-19T09:20:55;100268.41;;;16.66;29.42
6387;BME280;3226;42.162;24.756;2023-03-19T09:23:23;100263.00;;;16.75;29.64
6387;BME280;3226;42.162;24.756;2023-03-19T09:25:51;100256.84;;;16.67;29.83
6387;BME280;3226;42.162;24.756;2023-03-19T09:28:19;100246.59;;;16.17;30.15
6387;BME280;3226;42.162;24.756;2023-03-19T09:30:48;100257.72;;;16.39;29.40
6387;BME280;3226;42.162;24.756;2023-03-19T09:33:18;100258.16;;;15.88;30.24
6387;BME280;3226;42.162;24.756;2023-03-19T09:35:51;100254.72;;;15.78;29.87
6387;BME280;3226;42.162;24.756;2023-03-19T09:38:21;100251.56;;;16.02;29.90
6387;BME280;3226;42.162;24.756;2023-03-19T09:41:04;100250.03;;;16.46;30.29
6387;BME280;3226;42.162;24.756;2023-03-19T09:43:41;100246.28;;;16.02;30.45
6387;BME280;3226;42.162;24.756;2023-03-19T09:46:15;100230.78;;;16.54;30.25
6387;BME280;3226;42.162;24.756;2023-03-19T09:48:51;100237.63;;;16.83;29.53
6387;BME280;3226;42.162;24.756;2023-03-19T09:51:27;100232.75;;;16.33;30.70
6387;BME280;3226;42.162;24.756;2023-03-19T09:53:59;100227.31;;;16.07;31.61
6387;BME280;3226;42.162;24.756;2023-03-19T09:56:30;100229.84;;;15.43;31.61
6387;BME280;3226;42.162;24.756;2023-03-19T09:58:59;100209.84;;;14.93;32.67
6387;BME280;3226;42.162;24.756;2023-03-19T10:01:32;100217.41;;;15.25;33.50
6387;BME280;3226;42.162;24.756;2023-03-19T10:04:15;100220.66;;;15.47;32.72
6387;BME280;3226;42.162;24.756;2023-03-19T10:06:46;100216.94;;;16.06;31.62
6387;BME280;3226;42.162;24.756;2023-03-19T10:09:29;100204.53;;;16.42;31.02
6387;BME280;3226;42.162;24.756;2023-03-19T10:12:13;100202.34;;;16.01;31.89
6387;BME280;3226;42.162;24.756;2023-03-19T10:14:53;100199.44;;;16.23;32.10
6387;BME280;3226;42.162;24.756;2023-03-19T10:17:28;100183.16;;;15.43;33.45
6387;BME280;3226;42.162;24.756;2023-03-19T10:20:01;100191.72;;;15.55;34.00
6387;BME280;3226;42.162;24.756;2023-03-19T10:22:34;100188.69;;;15.50;33.97
6387;BME280;3226;42.162;24.756;2023-03-19T10:25:07;100178.13;;;15.50;33.98
6387;BME280;3226;42.162;24.756;2023-03-19T10:27:37;100168.28;;;15.14;34.47
6387;BME280;3226;42.162;24.756;2023-03-19T10:30:12;100167.78;;;15.39;34.99
6387;BME280;3226;42.162;24.756;2023-03-19T10:32:43;100164.25;;;15.76;34.43
6387;BME280;3226;42.162;24.756;2023-03-19T10:35:18;100155.78;;;15.72;34.97
6387;BME280;3226;42.162;24.756;2023-03-19T10:37:48;100130.75;;;15.76;35.57
6387;BME280;3226;42.162;24.756;2023-03-19T10:40:21;100137.31;;;15.72;34.28
6387;BME280;3226;42.162;24.756;2023-03-19T10:43:03;100141.47;;;15.75;34.12
6387;BME280;3226;42.162;24.756;2023-03-19T10:45:34;100131.28;;;15.80;34.24
6387;BME280;3226;42.162;24.756;2023-03-19T10:48:05;100127.41;;;15.56;35.56
6387;BME280;3226;42.162;24.756;2023-03-19T10:50:46;100099.00;;;15.68;34.01
6387;BME280;3226;42.162;24.756;2023-03-19T10:53:29;100129.31;;;16.10;34.19
6387;BME280;3226;42.162;24.756;2023-03-19T10:56:03;100122.06;;;16.12;33.75
6387;BME280;3226;42.162;24.756;2023-03-19T10:58:33;100116.59;;;15.96;34.35
6387;BME280;3226;42.162;24.756;2023-03-19T11:01:04;100114.25;;;15.46;34.43
6387;BME280;3226;42.162;24.756;2023-03-19T11:03:35;100100.66;;;15.13;35.38
6387;BME280;3226;42.162;24.756;2023-03-19T11:06:06;100098.75;;;15.61;35.21
6387;BME280;3226;42.162;24.756;2023-03-19T11:08:50;100092.44;;;15.72;35.21
6387;BME280;3226;42.162;24.756;2023-03-19T11:11:25;100092.38;;;15.82;34.58
6387;BME280;3226;42.162;24.756;2023-03-19T11:13:54;100088.56;;;15.67;35.47
6387;BME280;3226;42.162;24.756;2023-03-19T11:16:22;100084.56;;;15.63;34.93
6387;BME280;3226;42.162;24.756;2023-03-19T11:18:51;100083.47;;;15.83;35.36
6387;BME280;3226;42.162;24.756;2023-03-19T11:21:26;100082.28;;;15.96;34.86
6387;BME280;3226;42.162;24.756;2023-03-19T11:23:59;100070.06;;;15.95;34.41
6387;BME280;3226;42.162;24.756;2023-03-19T11:26:29;100072.38;;;15.98;34.64
6387;BME280;3226;42.162;24.756;2023-03-19T11:29:02;100064.53;;;16.06;34.57
6387;BME280;3226;42.162;24.756;2023-03-19T11:31:36;100070.06;;;15.95;35.29
6387;BME280;3226;42.162;24.756;2023-03-19T11:34:19;100061.81;;;15.98;34.96
6387;BME280;3226;42.162;24.756;2023-03-19T11:36:57;100055.16;;;16.12;34.26
6387;BME280;3226;42.162;24.756;2023-03-19T11:39:36;100055.97;;;16.30;34.38
6387;BME280;3226;42.162;24.756;2023-03-19T11:42:29;100056.25;;;16.45;34.07
6387;BME280;3226;42.162;24.756;2023-03-19T11:45:07;100054.38;;;16.38;33.56
6387;BME280;3226;42.162;24.756;2023-03-19T11:47:43;100039.59;;;16.27;33.76
6387;BME280;3226;42.162;24.756;2023-03-19T11:50:21;100049.56;;;15.79;34.69
6387;BME280;3226;42.162;24.756;2023-03-19T11:53:05;100045.13;;;15.61;35.03
6387;BME280;3226;42.162;24.756;2023-03-19T11:55:39;100012.59;;;15.42;34.83
6387;BME280;3226;42.162;24.756;2023-03-19T11:58:39;100033.75;;;15.97;35.01
6387;BME280;3226;42.162;24.756;2023-03-19T12:01:16;100030.34;;;16.04;34.60
6387;BME280;3226;42.162;24.756;2023-03-19T12:04:03;100025.84;;;16.23;34.40
6387;BME280;3226;42.162;24.756;2023-03-19T12:06:44;100023.78;;;16.35;34.04
6387;BME280;3226;42.162;24.756;2023-03-19T12:09:22;99990.63;;;16.14;33.94
6387;BME280;3226;42.162;24.756;2023-03-19T12:11:57;100026.03;;;15.67;35.11
6387;BME280;3226;42.162;24.756;2023-03-19T12:14:41;100024.09;;;15.69;35.97
6387;BME280;3226;42.162;24.756;2023-03-19T12:17:26;100018.88;;;15.78;35.14
6387;BME280;3226;42.162;24.756;2023-03-19T12:20:12;100001.66;;;15.19;35.52
6387;BME280;3226;42.162;24.756;2023-03-19T12:22:54;100010.28;;;15.11;36.03
6387;BME280;3226;42.162;24.756;2023-03-19T12:25:57;100013.66;;;15.68;35.36
6387;BME280;3226;42.162;24.756;2023-03-19T12:28:32;100017.66;;;16.08;34.98
6387;BME280;3226;42.162;24.756;2023-03-19T12:31:12;100015.81;;;16.27;34.56
6387;BME280;3226;42.162;24.756;2023-03-19T12:33:47;100003.88;;;16.49;34.44
6387;BME280;3226;42.162;24.756;2023-03-19T12:36:20;100006.03;;;16.45;34.15
6387;BME280;3226;42.162;24.756;2023-03-19T12:38:53;99999.00;;;16.36;34.85
6387;BME280;3226;42.162;24.756;2023-03-19T12:41:27;99994.41;;;16.38;35.27
6387;BME280;3226;42.162;24.756;2023-03-19T12:44:01;99988.88;;;16.50;34.81
6387;BME280;3226;42.162;24.756;2023-03-19T12:46:38;99877.50;;;15.83;34.56
6387;BME280;3226;42.162;24.756;2023-03-19T12:49:12;99983.22;;;16.18;34.18
6387;BME280;3226;42.162;24.756;2023-03-19T12:51:44;99983.63;;;16.05;34.98
6387;BME280;3226;42.162;24.756;2023-03-19T12:54:17;99981.16;;;16.30;34.79
6387;BME280;3226;42.162;24.756;2023-03-19T12:56:48;99972.28;;;16.39;34.54
6387;BME280;3226;42.162;24.756;2023-03-19T12:59:26;99982.31;;;16.62;34.06
6387;BME280;3226;42.162;24.756;2023-03-19T13:02:02;99944.28;;;16.55;33.61
6387;BME280;3226;42.162;24.756;2023-03-19T13:04:39;99964.22;;;16.84;33.55
6387;BME280;3226;42.162;24.756;2023-03-19T13:07:19;99952.97;;;16.82;33.14
6387;BME280;3226;42.162;24.756;2023-03-19T13:09:52;99968.72;;;16.48;33.68
6387;BME280;3226;42.162;24.756;2023-03-19T13:12:24;99963.56;;;16.47;33.56
6387;BME280;3226;42.162;24.756;2023-03-19T13:14:57;99958.13;;;15.96;34.43
6387;BME280;3226;42.162;24.756;2023-03-19T13:17:34;99952.19;;;16.46;33.99
6387;BME280;3226;42.162;24.756;2023-03-19T13:20:15;99950.78;;;16.69;33.27
6387;BME280;3226;42.162;24.756;2023-03-19T13:22:53;99950.59;;;16.62;33.23
6387;BME280;3226;42.162;24.756;2023-03-19T13:25:26;99943.19;;;16.39;33.98